Pembroke, NC

12:06 PM EST on March 04, 2015 (GMT -0500)
Fayetteville Regional-Grannis | Change Station
CLOSE
Current Station
Airport
Location: Fayetteville,
Elevation: 190 ft
Nearby Weather Stations
Active Advisory: Flood Warning

Elev 190 ft 34.99 °N, 78.88 °W | Updated 13 minutes ago

Partly Cloudy
Partly Cloudy
71 °F
Feels Like 71 °F
N
13
Wind Variable Wind from WSW

Today
High -- | Low -- °F
--% Chance of Precip.
Yesterday
High -- | Low -- °F
Precip. -- in
6:42 AM 6:15 PM
Waxing Gibbous, 99% visible
Pressure 30.00 in
Visibility 10.0 miles
Clouds Clear
Dew Point 61 °F
Humidity 70%
Rainfall 0.00 in
Snow Depth Not available.
UV 7 out of 12
Pollen 9.70 out of 12
Air Quality Not available.
Flu Activity Not available.
METAR KFAY 041653Z 24011KT 10SM CLR 22/16 A3001 RMK AO2 SLP158 T02170161

More Conditions Fewer Conditions

Pressure 30.00 in
Visibility 10.0 miles
Clouds Clear
Dew Point 61 °F
Humidity 70%
Rainfall 0.00 in
Snow Depth Not available.
UV 7 out of 12
Pollen 9.70 out of 12
Air Quality Not available.
Flu Activity Not available.
METAR KFAY 041653Z 24011KT 10SM CLR 22/16 A3001 RMK AO2 SLP158 T02170161

More Conditions Fewer Conditions

10-Day Weather Forecast

Almanac

Astronomy

Mar. 04, 2015 Rise Set
Actual Time
Civil Twilight
Nautical Twilight
Astronomical Twilight
Moon
Length of Visible Light
Length of Day
Tomorrow will be .
, % of the Moon is Illuminated

Today's Extremes

State Highs State Lows

Community

WunderPhotos

Upload Photos

1,802,505 photos uploaded!

WunderBlogs® & News

Nearby

Air Quality

  Air Quality AQ Index Pollutant
Not available.

Snow Depth

Station Depth Elevation

Earthquake Activity

City Distance Mag. Time & Date
Minimum magnitude displayed is 2.5.

Coastal Water Temperatures

Place Temperature

Nearby Weather Stations

Flood Warning
Statement as of 10:12 AM EST on March 04, 2015

The Flood Warning continues for
the lumber near Lumberton.
* Until further notice.
* At 7:00 am Wednesday the stage was 13.8 feet.
* Flood stage is 13.0 feet.
* Minor flooding is occurring and minor flooding is forecast.
* Forecast... the river will continue rising to near 14.3 feet by early Saturday
morning then begin falling.
* Impact... at 15.0 feet... flood waters will affect yards in The Pines area, Coxs
Pond area, and along River Road. Additional residential property will be
affected between the pepsi plant and the river on the east side of Lumberton.


Lat... Lon 3467 7916 3468 7904 3457 7891 3452 7899
          3461 7907 3458 7915